sensor_id;sensor_type;location;lat;lon;timestamp;P1;durP1;ratioP1;P2;durP2;ratioP2
59159;SDS011;44941;45.058;20.076;2022-09-16T00:00:44;2.20;;;0.52;;
59159;SDS011;44941;45.058;20.076;2022-09-16T00:03:11;5.68;;;1.00;;
59159;SDS011;44941;45.058;20.076;2022-09-16T00:05:40;7.55;;;0.93;;
59159;SDS011;44941;45.058;20.076;2022-09-16T00:08:07;4.68;;;0.80;;
59159;SDS011;44941;45.058;20.076;2022-09-16T00:10:33;3.90;;;0.65;;
59159;SDS011;44941;45.058;20.076;2022-09-16T00:12:59;2.78;;;0.70;;
59159;SDS011;44941;45.058;20.076;2022-09-16T00:15:25;1.95;;;0.68;;
59159;SDS011;44941;45.058;20.076;2022-09-16T00:17:51;4.32;;;0.70;;
59159;SDS011;44941;45.058;20.076;2022-09-16T00:20:18;5.88;;;1.20;;
59159;SDS011;44941;45.058;20.076;2022-09-16T00:22:44;2.25;;;0.50;;
59159;SDS011;44941;45.058;20.076;2022-09-16T00:25:10;3.65;;;0.65;;
59159;SDS011;44941;45.058;20.076;2022-09-16T00:27:36;7.75;;;1.00;;
59159;SDS011;44941;45.058;20.076;2022-09-16T00:30:05;5.18;;;0.82;;
59159;SDS011;44941;45.058;20.076;2022-09-16T00:32:31;2.25;;;0.57;;
59159;SDS011;44941;45.058;20.076;2022-09-16T00:34:58;5.30;;;0.63;;
59159;SDS011;44941;45.058;20.076;2022-09-16T00:37:24;3.58;;;0.70;;
59159;SDS011;44941;45.058;20.076;2022-09-16T00:39:51;2.50;;;0.68;;
59159;SDS011;44941;45.058;20.076;2022-09-16T00:42:17;1.25;;;0.50;;
59159;SDS011;44941;45.058;20.076;2022-09-16T00:44:50;2.28;;;0.40;;
59159;SDS011;44941;45.058;20.076;2022-09-16T00:47:19;2.33;;;0.57;;
59159;SDS011;44941;45.058;20.076;2022-09-16T00:49:46;2.40;;;0.60;;
59159;SDS011;44941;45.058;20.076;2022-09-16T00:52:13;4.18;;;0.70;;
59159;SDS011;44941;45.058;20.076;2022-09-16T00:54:39;4.32;;;0.65;;
59159;SDS011;44941;45.058;20.076;2022-09-16T00:57:06;2.53;;;0.77;;
59159;SDS011;44941;45.058;20.076;2022-09-16T00:59:35;5.15;;;1.10;;
59159;SDS011;44941;45.058;20.076;2022-09-16T01:02:05;1.98;;;0.40;;
59159;SDS011;44941;45.058;20.076;2022-09-16T01:04:34;3.35;;;0.70;;
59159;SDS011;44941;45.058;20.076;2022-09-16T01:07:02;3.20;;;0.60;;
59159;SDS011;44941;45.058;20.076;2022-09-16T01:09:28;5.00;;;0.73;;
59159;SDS011;44941;45.058;20.076;2022-09-16T01:11:55;3.17;;;0.60;;
59159;SDS011;44941;45.058;20.076;2022-09-16T01:14:21;3.88;;;0.75;;
59159;SDS011;44941;45.058;20.076;2022-09-16T01:17:27;5.18;;;0.82;;
59159;SDS011;44941;45.058;20.076;2022-09-16T01:22:28;2.30;;;0.50;;
59159;SDS011;44941;45.058;20.076;2022-09-16T01:35:31;6.15;;;0.68;;
59159;SDS011;44941;45.058;20.076;2022-09-16T01:38:08;2.63;;;0.68;;
59159;SDS011;44941;45.058;20.076;2022-09-16T01:43:25;2.15;;;0.60;;
59159;SDS011;44941;45.058;20.076;2022-09-16T01:45:55;2.10;;;0.68;;
59159;SDS011;44941;45.058;20.076;2022-09-16T01:56:11;3.47;;;0.82;;
59159;SDS011;44941;45.058;20.076;2022-09-16T01:58:56;4.25;;;0.55;;
59159;SDS011;44941;45.058;20.076;2022-09-16T02:01:25;2.03;;;0.75;;
59159;SDS011;44941;45.058;20.076;2022-09-16T02:03:56;5.00;;;0.82;;
59159;SDS011;44941;45.058;20.076;2022-09-16T02:06:23;6.13;;;0.60;;
59159;SDS011;44941;45.058;20.076;2022-09-16T02:08:52;5.25;;;0.68;;
59159;SDS011;44941;45.058;20.076;2022-09-16T02:11:21;4.72;;;0.98;;
59159;SDS011;44941;45.058;20.076;2022-09-16T02:13:52;3.05;;;0.75;;
59159;SDS011;44941;45.058;20.076;2022-09-16T02:16:24;3.17;;;0.70;;
59159;SDS011;44941;45.058;20.076;2022-09-16T02:18:53;2.85;;;0.70;;
59159;SDS011;44941;45.058;20.076;2022-09-16T02:23:47;4.97;;;0.70;;
59159;SDS011;44941;45.058;20.076;2022-09-16T02:26:16;2.83;;;0.50;;
59159;SDS011;44941;45.058;20.076;2022-09-16T02:28:45;3.25;;;0.70;;
59159;SDS011;44941;45.058;20.076;2022-09-16T02:31:12;4.88;;;0.90;;
59159;SDS011;44941;45.058;20.076;2022-09-16T02:36:06;2.97;;;0.50;;
59159;SDS011;44941;45.058;20.076;2022-09-16T02:38:34;2.33;;;0.73;;
59159;SDS011;44941;45.058;20.076;2022-09-16T02:41:02;5.47;;;0.85;;
59159;SDS011;44941;45.058;20.076;2022-09-16T02:43:29;7.90;;;1.08;;
59159;SDS011;44941;45.058;20.076;2022-09-16T02:48:49;5.13;;;0.77;;
59159;SDS011;44941;45.058;20.076;2022-09-16T02:51:22;7.25;;;0.63;;
59159;SDS011;44941;45.058;20.076;2022-09-16T02:54:00;3.03;;;0.68;;
59159;SDS011;44941;45.058;20.076;2022-09-16T02:56:31;4.25;;;0.70;;
59159;SDS011;44941;45.058;20.076;2022-09-16T02:58:58;2.67;;;0.80;;
59159;SDS011;44941;45.058;20.076;2022-09-16T03:01:27;6.68;;;0.75;;
59159;SDS011;44941;45.058;20.076;2022-09-16T03:03:55;3.20;;;0.70;;
59159;SDS011;44941;45.058;20.076;2022-09-16T03:06:25;2.10;;;0.50;;
59159;SDS011;44941;45.058;20.076;2022-09-16T03:08:52;2.67;;;0.65;;
59159;SDS011;44941;45.058;20.076;2022-09-16T03:11:24;3.90;;;0.82;;
59159;SDS011;44941;45.058;20.076;2022-09-16T03:14:03;5.50;;;0.90;;
59159;SDS011;44941;45.058;20.076;2022-09-16T03:17:08;5.75;;;0.80;;
59159;SDS011;44941;45.058;20.076;2022-09-16T03:24:57;2.45;;;0.65;;
59159;SDS011;44941;45.058;20.076;2022-09-16T03:27:28;3.90;;;0.95;;
59159;SDS011;44941;45.058;20.076;2022-09-16T03:30:05;3.80;;;0.68;;
59159;SDS011;44941;45.058;20.076;2022-09-16T03:35:11;4.68;;;0.82;;
59159;SDS011;44941;45.058;20.076;2022-09-16T03:37:40;2.85;;;1.10;;
59159;SDS011;44941;45.058;20.076;2022-09-16T03:40:11;3.30;;;0.88;;
59159;SDS011;44941;45.058;20.076;2022-09-16T03:42:38;3.83;;;0.82;;
59159;SDS011;44941;45.058;20.076;2022-09-16T03:45:05;4.03;;;0.93;;
59159;SDS011;44941;45.058;20.076;2022-09-16T03:47:31;2.90;;;0.80;;
59159;SDS011;44941;45.058;20.076;2022-09-16T03:50:00;4.43;;;1.00;;
59159;SDS011;44941;45.058;20.076;2022-09-16T03:52:30;3.75;;;1.00;;
59159;SDS011;44941;45.058;20.076;2022-09-16T03:54:59;4.10;;;1.10;;
59159;SDS011;44941;45.058;20.076;2022-09-16T03:57:25;3.60;;;1.00;;
59159;SDS011;44941;45.058;20.076;2022-09-16T04:00:02;10.23;;;4.03;;
59159;SDS011;44941;45.058;20.076;2022-09-16T04:02:28;10.93;;;4.95;;
59159;SDS011;44941;45.058;20.076;2022-09-16T04:04:54;9.20;;;3.90;;
59159;SDS011;44941;45.058;20.076;2022-09-16T04:07:21;8.52;;;2.70;;
59159;SDS011;44941;45.058;20.076;2022-09-16T04:09:47;8.15;;;2.00;;
59159;SDS011;44941;45.058;20.076;2022-09-16T04:12:13;6.38;;;1.70;;
59159;SDS011;44941;45.058;20.076;2022-09-16T04:14:39;6.60;;;1.80;;
59159;SDS011;44941;45.058;20.076;2022-09-16T04:17:05;6.38;;;1.80;;
59159;SDS011;44941;45.058;20.076;2022-09-16T04:19:31;6.50;;;1.83;;
59159;SDS011;44941;45.058;20.076;2022-09-16T04:21:57;7.45;;;2.88;;
59159;SDS011;44941;45.058;20.076;2022-09-16T04:24:23;13.57;;;5.95;;
59159;SDS011;44941;45.058;20.076;2022-09-16T04:26:50;14.43;;;5.80;;
59159;SDS011;44941;45.058;20.076;2022-09-16T04:29:16;16.13;;;7.90;;
59159;SDS011;44941;45.058;20.076;2022-09-16T04:31:42;13.32;;;7.43;;
59159;SDS011;44941;45.058;20.076;2022-09-16T04:34:08;9.05;;;4.43;;
59159;SDS011;44941;45.058;20.076;2022-09-16T04:36:37;8.30;;;2.92;;
59159;SDS011;44941;45.058;20.076;2022-09-16T04:39:04;7.85;;;3.17;;
59159;SDS011;44941;45.058;20.076;2022-09-16T04:41:30;7.90;;;3.03;;
59159;SDS011;44941;45.058;20.076;2022-09-16T04:43:57;6.30;;;2.10;;
59159;SDS011;44941;45.058;20.076;2022-09-16T04:46:23;7.00;;;2.65;;
59159;SDS011;44941;45.058;20.076;2022-09-16T04:48:51;8.05;;;2.85;;
59159;SDS011;44941;45.058;20.076;2022-09-16T04:51:17;5.68;;;2.08;;
59159;SDS011;44941;45.058;20.076;2022-09-16T04:53:44;8.43;;;2.45;;
59159;SDS011;44941;45.058;20.076;2022-09-16T04:58:43;7.55;;;1.73;;
59159;SDS011;44941;45.058;20.076;2022-09-16T05:01:10;4.40;;;1.70;;
59159;SDS011;44941;45.058;20.076;2022-09-16T05:03:40;10.13;;;1.98;;
59159;SDS011;44941;45.058;20.076;2022-09-16T05:06:08;7.13;;;2.15;;
59159;SDS011;44941;45.058;20.076;2022-09-16T05:08:34;6.47;;;1.65;;
59159;SDS011;44941;45.058;20.076;2022-09-16T05:11:04;4.50;;;1.40;;
59159;SDS011;44941;45.058;20.076;2022-09-16T05:13:30;3.47;;;1.50;;
59159;SDS011;44941;45.058;20.076;2022-09-16T05:16:02;3.03;;;1.20;;
59159;SDS011;44941;45.058;20.076;2022-09-16T05:18:29;7.30;;;1.30;;
59159;SDS011;44941;45.058;20.076;2022-09-16T05:20:59;5.70;;;1.10;;
59159;SDS011;44941;45.058;20.076;2022-09-16T05:23:25;4.25;;;1.00;;
59159;SDS011;44941;45.058;20.076;2022-09-16T05:25:51;3.35;;;1.13;;
59159;SDS011;44941;45.058;20.076;2022-09-16T05:28:18;3.60;;;1.17;;
59159;SDS011;44941;45.058;20.076;2022-09-16T05:30:44;6.30;;;1.38;;
59159;SDS011;44941;45.058;20.076;2022-09-16T05:33:10;4.57;;;1.42;;
59159;SDS011;44941;45.058;20.076;2022-09-16T05:35:36;5.57;;;1.58;;
59159;SDS011;44941;45.058;20.076;2022-09-16T05:38:02;7.80;;;1.70;;
59159;SDS011;44941;45.058;20.076;2022-09-16T05:40:28;3.38;;;1.27;;
59159;SDS011;44941;45.058;20.076;2022-09-16T05:42:54;3.80;;;1.45;;
59159;SDS011;44941;45.058;20.076;2022-09-16T05:45:20;4.90;;;1.48;;
59159;SDS011;44941;45.058;20.076;2022-09-16T05:47:47;4.90;;;1.40;;
59159;SDS011;44941;45.058;20.076;2022-09-16T05:50:13;5.82;;;1.60;;
59159;SDS011;44941;45.058;20.076;2022-09-16T05:52:39;5.35;;;1.40;;
59159;SDS011;44941;45.058;20.076;2022-09-16T05:55:05;6.30;;;1.63;;
59159;SDS011;44941;45.058;20.076;2022-09-16T05:57:31;5.32;;;2.10;;
59159;SDS011;44941;45.058;20.076;2022-09-16T05:59:58;6.40;;;1.77;;
59159;SDS011;44941;45.058;20.076;2022-09-16T06:02:24;10.18;;;1.83;;
59159;SDS011;44941;45.058;20.076;2022-09-16T06:04:50;6.13;;;1.50;;
59159;SDS011;44941;45.058;20.076;2022-09-16T06:07:17;7.15;;;2.10;;
59159;SDS011;44941;45.058;20.076;2022-09-16T06:09:43;6.13;;;1.95;;
59159;SDS011;44941;45.058;20.076;2022-09-16T06:12:09;5.82;;;1.70;;
59159;SDS011;44941;45.058;20.076;2022-09-16T06:14:38;4.90;;;1.83;;
59159;SDS011;44941;45.058;20.076;2022-09-16T06:17:06;3.60;;;1.55;;
59159;SDS011;44941;45.058;20.076;2022-09-16T06:19:32;4.95;;;1.77;;
59159;SDS011;44941;45.058;20.076;2022-09-16T06:21:58;7.63;;;1.83;;
59159;SDS011;44941;45.058;20.076;2022-09-16T06:24:24;3.80;;;1.42;;
59159;SDS011;44941;45.058;20.076;2022-09-16T06:26:50;4.25;;;1.42;;
59159;SDS011;44941;45.058;20.076;2022-09-16T06:29:17;8.73;;;1.50;;
59159;SDS011;44941;45.058;20.076;2022-09-16T06:31:43;5.43;;;1.40;;
59159;SDS011;44941;45.058;20.076;2022-09-16T06:34:14;4.82;;;1.38;;
59159;SDS011;44941;45.058;20.076;2022-09-16T06:36:43;6.47;;;1.50;;
59159;SDS011;44941;45.058;20.076;2022-09-16T06:39:10;5.30;;;1.30;;
59159;SDS011;44941;45.058;20.076;2022-09-16T06:41:36;7.97;;;1.27;;
59159;SDS011;44941;45.058;20.076;2022-09-16T06:44:02;4.45;;;1.20;;
59159;SDS011;44941;45.058;20.076;2022-09-16T06:46:28;8.73;;;1.13;;
59159;SDS011;44941;45.058;20.076;2022-09-16T06:48:56;5.00;;;1.08;;
59159;SDS011;44941;45.058;20.076;2022-09-16T06:53:49;3.90;;;1.05;;
59159;SDS011;44941;45.058;20.076;2022-09-16T06:56:16;6.83;;;1.83;;
59159;SDS011;44941;45.058;20.076;2022-09-16T06:58:43;4.43;;;1.60;;
59159;SDS011;44941;45.058;20.076;2022-09-16T07:01:12;4.72;;;0.95;;
59159;SDS011;44941;45.058;20.076;2022-09-16T07:03:40;4.07;;;0.90;;
59159;SDS011;44941;45.058;20.076;2022-09-16T07:08:33;4.15;;;0.80;;
59159;SDS011;44941;45.058;20.076;2022-09-16T07:11:00;4.10;;;0.60;;
59159;SDS011;44941;45.058;20.076;2022-09-16T07:13:27;5.68;;;0.82;;
59159;SDS011;44941;45.058;20.076;2022-09-16T07:15:53;4.63;;;0.60;;
59159;SDS011;44941;45.058;20.076;2022-09-16T07:18:19;2.95;;;0.60;;
59159;SDS011;44941;45.058;20.076;2022-09-16T07:20:45;2.08;;;0.60;;
59159;SDS011;44941;45.058;20.076;2022-09-16T07:23:11;2.67;;;0.73;;
59159;SDS011;44941;45.058;20.076;2022-09-16T07:25:37;2.35;;;0.77;;
59159;SDS011;44941;45.058;20.076;2022-09-16T07:28:04;2.60;;;0.70;;
59159;SDS011;44941;45.058;20.076;2022-09-16T07:30:30;2.65;;;0.85;;
59159;SDS011;44941;45.058;20.076;2022-09-16T07:35:24;2.40;;;1.00;;
59159;SDS011;44941;45.058;20.076;2022-09-16T07:37:50;2.83;;;0.60;;
59159;SDS011;44941;45.058;20.076;2022-09-16T07:40:16;2.30;;;0.85;;
59159;SDS011;44941;45.058;20.076;2022-09-16T07:42:43;4.32;;;0.90;;
59159;SDS011;44941;45.058;20.076;2022-09-16T07:45:09;5.75;;;0.68;;
59159;SDS011;44941;45.058;20.076;2022-09-16T07:47:35;3.30;;;0.98;;
59159;SDS011;44941;45.058;20.076;2022-09-16T07:50:01;3.45;;;0.80;;
59159;SDS011;44941;45.058;20.076;2022-09-16T07:52:27;7.97;;;0.85;;
59159;SDS011;44941;45.058;20.076;2022-09-16T07:54:54;5.80;;;0.90;;
59159;SDS011;44941;45.058;20.076;2022-09-16T07:57:21;3.72;;;0.90;;
59159;SDS011;44941;45.058;20.076;2022-09-16T07:59:47;4.32;;;0.85;;
59159;SDS011;44941;45.058;20.076;2022-09-16T08:02:13;4.53;;;0.73;;
59159;SDS011;44941;45.058;20.076;2022-09-16T08:04:39;4.07;;;0.98;;
59159;SDS011;44941;45.058;20.076;2022-09-16T08:07:05;6.60;;;0.90;;
59159;SDS011;44941;45.058;20.076;2022-09-16T08:09:32;5.40;;;1.20;;
59159;SDS011;44941;45.058;20.076;2022-09-16T08:11:58;6.90;;;1.02;;
59159;SDS011;44941;45.058;20.076;2022-09-16T08:14:26;4.78;;;0.90;;
59159;SDS011;44941;45.058;20.076;2022-09-16T08:16:52;3.75;;;1.10;;
59159;SDS011;44941;45.058;20.076;2022-09-16T08:19:18;3.15;;;0.75;;
59159;SDS011;44941;45.058;20.076;2022-09-16T08:21:46;3.45;;;0.65;;
59159;SDS011;44941;45.058;20.076;2022-09-16T08:24:12;5.20;;;0.93;;
59159;SDS011;44941;45.058;20.076;2022-09-16T08:26:38;4.40;;;0.90;;
59159;SDS011;44941;45.058;20.076;2022-09-16T08:29:05;3.17;;;0.70;;
59159;SDS011;44941;45.058;20.076;2022-09-16T08:31:31;5.13;;;1.05;;
59159;SDS011;44941;45.058;20.076;2022-09-16T08:33:57;3.17;;;1.00;;
59159;SDS011;44941;45.058;20.076;2022-09-16T08:36:24;3.80;;;1.00;;
59159;SDS011;44941;45.058;20.076;2022-09-16T08:38:51;5.90;;;1.23;;
59159;SDS011;44941;45.058;20.076;2022-09-16T08:46:36;3.35;;;0.85;;
59159;SDS011;44941;45.058;20.076;2022-09-16T08:51:31;3.30;;;0.93;;
59159;SDS011;44941;45.058;20.076;2022-09-16T08:54:01;3.33;;;0.85;;
59159;SDS011;44941;45.058;20.076;2022-09-16T08:56:29;1.95;;;0.52;;
59159;SDS011;44941;45.058;20.076;2022-09-16T09:01:41;2.90;;;0.85;;
59159;SDS011;44941;45.058;20.076;2022-09-16T09:04:10;4.55;;;0.90;;
59159;SDS011;44941;45.058;20.076;2022-09-16T09:06:45;4.45;;;1.15;;
59159;SDS011;44941;45.058;20.076;2022-09-16T09:09:20;3.15;;;1.00;;
59159;SDS011;44941;45.058;20.076;2022-09-16T09:11:51;3.47;;;1.17;;
59159;SDS011;44941;45.058;20.076;2022-09-16T09:14:22;4.72;;;0.90;;
59159;SDS011;44941;45.058;20.076;2022-09-16T09:22:03;7.50;;;1.23;;
59159;SDS011;44941;45.058;20.076;2022-09-16T09:24:34;3.83;;;0.93;;
59159;SDS011;44941;45.058;20.076;2022-09-16T09:30:08;4.20;;;1.17;;
59159;SDS011;44941;45.058;20.076;2022-09-16T09:37:41;3.80;;;1.30;;
59159;SDS011;44941;45.058;20.076;2022-09-16T09:42:36;4.13;;;1.20;;
59159;SDS011;44941;45.058;20.076;2022-09-16T09:50:21;3.85;;;1.13;;
59159;SDS011;44941;45.058;20.076;2022-09-16T09:55:21;3.90;;;1.10;;
59159;SDS011;44941;45.058;20.076;2022-09-16T09:58:04;5.40;;;0.98;;
59159;SDS011;44941;45.058;20.076;2022-09-16T10:00:31;2.15;;;0.73;;
59159;SDS011;44941;45.058;20.076;2022-09-16T10:03:01;3.70;;;0.90;;
59159;SDS011;44941;45.058;20.076;2022-09-16T10:05:29;2.42;;;0.90;;
59159;SDS011;44941;45.058;20.076;2022-09-16T10:08:02;2.45;;;0.95;;
59159;SDS011;44941;45.058;20.076;2022-09-16T10:10:30;4.45;;;1.05;;
59159;SDS011;44941;45.058;20.076;2022-09-16T10:13:09;3.00;;;0.70;;
59159;SDS011;44941;45.058;20.076;2022-09-16T10:15:37;2.22;;;0.77;;
59159;SDS011;44941;45.058;20.076;2022-09-16T10:18:08;2.03;;;0.52;;
59159;SDS011;44941;45.058;20.076;2022-09-16T10:20:38;2.33;;;0.63;;
59159;SDS011;44941;45.058;20.076;2022-09-16T10:23:08;2.47;;;0.75;;
59159;SDS011;44941;45.058;20.076;2022-09-16T10:25:35;2.58;;;0.75;;
59159;SDS011;44941;45.058;20.076;2022-09-16T10:28:03;1.90;;;0.57;;
59159;SDS011;44941;45.058;20.076;2022-09-16T10:30:30;1.88;;;0.70;;
59159;SDS011;44941;45.058;20.076;2022-09-16T10:33:02;2.90;;;0.70;;
59159;SDS011;44941;45.058;20.076;2022-09-16T10:35:29;1.95;;;0.63;;
59159;SDS011;44941;45.058;20.076;2022-09-16T10:37:57;3.35;;;0.75;;
59159;SDS011;44941;45.058;20.076;2022-09-16T10:40:24;9.00;;;5.15;;
59159;SDS011;44941;45.058;20.076;2022-09-16T10:42:51;5.50;;;2.42;;
59159;SDS011;44941;45.058;20.076;2022-09-16T10:45:27;3.60;;;1.10;;
59159;SDS011;44941;45.058;20.076;2022-09-16T10:47:56;2.55;;;1.00;;
59159;SDS011;44941;45.058;20.076;2022-09-16T10:50:24;3.42;;;0.93;;
59159;SDS011;44941;45.058;20.076;2022-09-16T10:52:50;2.47;;;1.00;;
59159;SDS011;44941;45.058;20.076;2022-09-16T10:55:20;2.67;;;0.80;;
59159;SDS011;44941;45.058;20.076;2022-09-16T10:57:47;2.95;;;0.90;;
59159;SDS011;44941;45.058;20.076;2022-09-16T11:00:14;2.63;;;1.00;;
59159;SDS011;44941;45.058;20.076;2022-09-16T11:10:07;2.95;;;1.20;;
59159;SDS011;44941;45.058;20.076;2022-09-16T11:20:17;4.22;;;1.38;;
59159;SDS011;44941;45.058;20.076;2022-09-16T11:30:26;3.70;;;1.30;;
59159;SDS011;44941;45.058;20.076;2022-09-16T11:38:17;4.22;;;1.30;;
59159;SDS011;44941;45.058;20.076;2022-09-16T11:41:01;3.70;;;1.50;;
59159;SDS011;44941;45.058;20.076;2022-09-16T11:43:45;3.22;;;1.42;;
59159;SDS011;44941;45.058;20.076;2022-09-16T11:51:18;3.78;;;1.30;;
59159;SDS011;44941;45.058;20.076;2022-09-16T11:54:01;5.72;;;2.00;;
59159;SDS011;44941;45.058;20.076;2022-09-16T11:59:04;5.55;;;1.50;;
59159;SDS011;44941;45.058;20.076;2022-09-16T12:01:35;3.03;;;1.30;;
59159;SDS011;44941;45.058;20.076;2022-09-16T12:04:05;3.92;;;1.70;;
59159;SDS011;44941;45.058;20.076;2022-09-16T12:06:38;6.03;;;2.10;;
59159;SDS011;44941;45.058;20.076;2022-09-16T12:09:16;4.50;;;2.10;;
59159;SDS011;44941;45.058;20.076;2022-09-16T12:11:45;4.35;;;1.92;;
59159;SDS011;44941;45.058;20.076;2022-09-16T12:16:44;6.38;;;2.42;;
59159;SDS011;44941;45.058;20.076;2022-09-16T12:19:33;6.30;;;2.50;;
59159;SDS011;44941;45.058;20.076;2022-09-16T12:22:08;4.20;;;2.25;;
59159;SDS011;44941;45.058;20.076;2022-09-16T12:24:43;4.55;;;2.13;;
59159;SDS011;44941;45.058;20.076;2022-09-16T12:27:22;4.68;;;2.35;;
59159;SDS011;44941;45.058;20.076;2022-09-16T12:29:52;6.28;;;2.83;;
59159;SDS011;44941;45.058;20.076;2022-09-16T12:35:14;9.77;;;3.80;;
59159;SDS011;44941;45.058;20.076;2022-09-16T12:37:47;9.25;;;3.70;;
59159;SDS011;44941;45.058;20.076;2022-09-16T12:40:20;6.35;;;2.80;;
59159;SDS011;44941;45.058;20.076;2022-09-16T12:43:07;5.88;;;3.10;;
59159;SDS011;44941;45.058;20.076;2022-09-16T12:58:17;6.78;;;3.13;;
59159;SDS011;44941;45.058;20.076;2022-09-16T13:03:51;6.93;;;3.60;;
59159;SDS011;44941;45.058;20.076;2022-09-16T13:06:29;6.60;;;2.58;;
59159;SDS011;44941;45.058;20.076;2022-09-16T13:08:58;5.57;;;2.38;;
59159;SDS011;44941;45.058;20.076;2022-09-16T13:11:37;4.97;;;2.47;;
59159;SDS011;44941;45.058;20.076;2022-09-16T13:14:04;6.70;;;2.63;;
59159;SDS011;44941;45.058;20.076;2022-09-16T13:16:32;5.78;;;2.67;;
59159;SDS011;44941;45.058;20.076;2022-09-16T13:21:26;4.30;;;2.70;;
59159;SDS011;44941;45.058;20.076;2022-09-16T13:26:40;4.95;;;2.25;;
59159;SDS011;44941;45.058;20.076;2022-09-16T13:32:24;3.35;;;1.60;;
59159;SDS011;44941;45.058;20.076;2022-09-16T13:35:37;2.88;;;1.27;;
59159;SDS011;44941;45.058;20.076;2022-09-16T13:37:37;2.67;;;1.13;;
59159;SDS011;44941;45.058;20.076;2022-09-16T13:40:07;3.55;;;1.10;;
59159;SDS011;44941;45.058;20.076;2022-09-16T13:42:33;5.07;;;1.52;;
59159;SDS011;44941;45.058;20.076;2022-09-16T13:45:00;3.83;;;1.90;;
59159;SDS011;44941;45.058;20.076;2022-09-16T13:47:35;6.50;;;1.65;;
59159;SDS011;44941;45.058;20.076;2022-09-16T13:50:06;2.65;;;1.17;;
59159;SDS011;44941;45.058;20.076;2022-09-16T13:52:36;5.30;;;1.50;;
59159;SDS011;44941;45.058;20.076;2022-09-16T13:55:03;3.20;;;1.73;;
59159;SDS011;44941;45.058;20.076;2022-09-16T14:02:45;3.70;;;1.83;;
59159;SDS011;44941;45.058;20.076;2022-09-16T14:07:50;4.00;;;2.10;;
59159;SDS011;44941;45.058;20.076;2022-09-16T14:13:15;6.88;;;2.42;;
59159;SDS011;44941;45.058;20.076;2022-09-16T14:15:43;4.70;;;2.45;;
59159;SDS011;44941;45.058;20.076;2022-09-16T14:18:13;3.78;;;1.92;;
59159;SDS011;44941;45.058;20.076;2022-09-16T14:23:23;3.45;;;1.63;;
59159;SDS011;44941;45.058;20.076;2022-09-16T14:25:49;5.00;;;1.85;;
59159;SDS011;44941;45.058;20.076;2022-09-16T14:28:20;4.20;;;1.80;;
59159;SDS011;44941;45.058;20.076;2022-09-16T14:30:47;4.43;;;1.83;;
59159;SDS011;44941;45.058;20.076;2022-09-16T14:33:14;4.10;;;1.48;;
59159;SDS011;44941;45.058;20.076;2022-09-16T14:35:41;2.00;;;1.27;;
59159;SDS011;44941;45.058;20.076;2022-09-16T14:38:08;5.53;;;2.05;;
59159;SDS011;44941;45.058;20.076;2022-09-16T14:40:34;4.28;;;2.17;;
59159;SDS011;44941;45.058;20.076;2022-09-16T14:43:07;3.92;;;1.70;;
59159;SDS011;44941;45.058;20.076;2022-09-16T14:45:36;6.80;;;2.55;;
59159;SDS011;44941;45.058;20.076;2022-09-16T14:48:06;3.53;;;1.92;;
59159;SDS011;44941;45.058;20.076;2022-09-16T14:50:37;7.20;;;2.60;;
59159;SDS011;44941;45.058;20.076;2022-09-16T14:53:05;6.97;;;2.67;;
59159;SDS011;44941;45.058;20.076;2022-09-16T14:55:33;5.38;;;2.50;;
59159;SDS011;44941;45.058;20.076;2022-09-16T14:58:04;4.28;;;2.20;;
59159;SDS011;44941;45.058;20.076;2022-09-16T15:05:44;4.80;;;2.85;;
59159;SDS011;44941;45.058;20.076;2022-09-16T15:10:44;5.47;;;2.50;;
59159;SDS011;44941;45.058;20.076;2022-09-16T15:13:11;7.00;;;2.47;;
59159;SDS011;44941;45.058;20.076;2022-09-16T15:15:38;4.93;;;2.60;;
59159;SDS011;44941;45.058;20.076;2022-09-16T15:20:48;4.75;;;2.80;;
59159;SDS011;44941;45.058;20.076;2022-09-16T15:23:25;7.60;;;3.63;;
59159;SDS011;44941;45.058;20.076;2022-09-16T15:28:32;6.00;;;3.38;;
59159;SDS011;44941;45.058;20.076;2022-09-16T15:30:58;5.13;;;3.30;;
59159;SDS011;44941;45.058;20.076;2022-09-16T15:33:26;6.15;;;3.25;;
59159;SDS011;44941;45.058;20.076;2022-09-16T15:35:53;8.25;;;3.22;;
59159;SDS011;44941;45.058;20.076;2022-09-16T15:38:20;6.72;;;3.03;;
59159;SDS011;44941;45.058;20.076;2022-09-16T15:41:01;5.70;;;3.03;;
59159;SDS011;44941;45.058;20.076;2022-09-16T15:43:28;6.43;;;3.50;;
59159;SDS011;44941;45.058;20.076;2022-09-16T15:45:57;9.38;;;3.78;;
59159;SDS011;44941;45.058;20.076;2022-09-16T15:48:25;6.15;;;3.97;;
59159;SDS011;44941;45.058;20.076;2022-09-16T15:50:58;5.68;;;3.67;;
59159;SDS011;44941;45.058;20.076;2022-09-16T15:58:45;12.48;;;6.05;;
59159;SDS011;44941;45.058;20.076;2022-09-16T16:01:19;14.60;;;6.57;;
59159;SDS011;44941;45.058;20.076;2022-09-16T16:04:02;13.57;;;5.78;;
59159;SDS011;44941;45.058;20.076;2022-09-16T16:06:45;12.25;;;6.20;;
59159;SDS011;44941;45.058;20.076;2022-09-16T16:11:53;13.20;;;6.10;;
59159;SDS011;44941;45.058;20.076;2022-09-16T16:14:20;9.20;;;4.97;;
59159;SDS011;44941;45.058;20.076;2022-09-16T16:16:48;11.27;;;6.15;;
59159;SDS011;44941;45.058;20.076;2022-09-16T16:19:14;9.60;;;6.00;;
59159;SDS011;44941;45.058;20.076;2022-09-16T16:21:40;9.63;;;5.53;;
59159;SDS011;44941;45.058;20.076;2022-09-16T16:24:10;13.48;;;5.35;;
59159;SDS011;44941;45.058;20.076;2022-09-16T16:26:36;12.75;;;5.75;;
59159;SDS011;44941;45.058;20.076;2022-09-16T16:29:02;11.68;;;6.03;;
59159;SDS011;44941;45.058;20.076;2022-09-16T16:31:28;10.80;;;6.22;;
59159;SDS011;44941;45.058;20.076;2022-09-16T16:33:54;8.48;;;5.25;;
59159;SDS011;44941;45.058;20.076;2022-09-16T16:36:21;10.77;;;5.73;;
59159;SDS011;44941;45.058;20.076;2022-09-16T16:38:47;12.40;;;5.93;;
59159;SDS011;44941;45.058;20.076;2022-09-16T16:41:23;10.05;;;5.20;;
59159;SDS011;44941;45.058;20.076;2022-09-16T16:43:49;8.52;;;5.45;;
59159;SDS011;44941;45.058;20.076;2022-09-16T16:46:16;8.80;;;6.13;;
59159;SDS011;44941;45.058;20.076;2022-09-16T16:48:43;8.97;;;5.97;;
59159;SDS011;44941;45.058;20.076;2022-09-16T16:51:09;9.48;;;6.00;;
59159;SDS011;44941;45.058;20.076;2022-09-16T16:53:37;10.02;;;6.60;;
59159;SDS011;44941;45.058;20.076;2022-09-16T16:56:08;10.33;;;6.33;;
59159;SDS011;44941;45.058;20.076;2022-09-16T16:58:35;10.20;;;5.82;;
59159;SDS011;44941;45.058;20.076;2022-09-16T17:01:05;11.60;;;5.90;;
59159;SDS011;44941;45.058;20.076;2022-09-16T17:03:32;14.90;;;6.53;;
59159;SDS011;44941;45.058;20.076;2022-09-16T17:05:58;9.75;;;5.90;;
59159;SDS011;44941;45.058;20.076;2022-09-16T17:08:25;9.48;;;5.30;;
59159;SDS011;44941;45.058;20.076;2022-09-16T17:13:51;8.17;;;4.73;;
59159;SDS011;44941;45.058;20.076;2022-09-16T17:16:19;7.13;;;5.00;;
59159;SDS011;44941;45.058;20.076;2022-09-16T17:21:12;7.22;;;4.60;;
59159;SDS011;44941;45.058;20.076;2022-09-16T17:23:38;12.02;;;5.47;;
59159;SDS011;44941;45.058;20.076;2022-09-16T17:26:05;9.90;;;5.10;;
59159;SDS011;44941;45.058;20.076;2022-09-16T17:28:33;10.30;;;5.03;;
59159;SDS011;44941;45.058;20.076;2022-09-16T17:30:59;8.93;;;5.25;;
59159;SDS011;44941;45.058;20.076;2022-09-16T17:33:26;8.57;;;5.18;;
59159;SDS011;44941;45.058;20.076;2022-09-16T17:35:58;9.35;;;5.32;;
59159;SDS011;44941;45.058;20.076;2022-09-16T17:38:24;9.93;;;5.75;;
59159;SDS011;44941;45.058;20.076;2022-09-16T17:40:50;7.70;;;4.82;;
59159;SDS011;44941;45.058;20.076;2022-09-16T17:43:16;10.10;;;5.55;;
59159;SDS011;44941;45.058;20.076;2022-09-16T17:45:45;20.40;;;11.00;;
59159;SDS011;44941;45.058;20.076;2022-09-16T17:48:13;13.90;;;7.28;;
59159;SDS011;44941;45.058;20.076;2022-09-16T17:50:39;10.68;;;6.95;;